createdAt,value
2022-09-10T07:01:25.706Z,100.00
2022-09-10T07:03:59.147Z,100.00
2022-09-10T07:06:31.833Z,100.00
2022-09-10T07:09:05.991Z,100.00
2022-09-10T07:11:41.551Z,100.00
2022-09-10T07:14:14.079Z,100.00
2022-09-10T07:16:44.591Z,100.00
2022-09-10T07:19:15.168Z,100.00
2022-09-10T07:21:48.714Z,100.00
2022-09-10T07:24:20.008Z,100.00
2022-09-10T07:27:06.895Z,100.00
2022-09-10T07:29:37.081Z,100.00
2022-09-10T07:32:13.499Z,100.00
2022-09-10T07:34:42.363Z,100.00
2022-09-10T07:37:15.571Z,100.00
2022-09-10T07:39:44.221Z,100.00
2022-09-10T07:42:12.861Z,100.00
2022-09-10T07:44:42.249Z,100.00
2022-09-10T07:47:11.913Z,100.00
2022-09-10T07:49:40.184Z,100.00
2022-09-10T07:52:09.383Z,100.00
2022-09-10T07:54:45.469Z,100.00
2022-09-10T07:57:14.041Z,100.00
2022-09-10T07:59:42.813Z,100.00
2022-09-10T08:02:16.135Z,100.00
2022-09-10T08:04:50.617Z,100.00
2022-09-10T08:07:19.607Z,99.86
2022-09-10T08:09:48.536Z,98.68
2022-09-10T08:12:19.341Z,98.77
2022-09-10T08:14:48.790Z,96.86
2022-09-10T08:17:20.421Z,98.04
2022-09-10T08:19:50.614Z,96.87
2022-09-10T08:22:20.220Z,95.77
2022-09-10T08:24:56.061Z,97.07
2022-09-10T08:27:28.974Z,96.56
2022-09-10T08:29:58.034Z,96.60
2022-09-10T08:32:28.717Z,97.51
2022-09-10T08:34:58.357Z,97.97
2022-09-10T08:37:31.103Z,96.08
2022-09-10T08:39:59.614Z,95.32
2022-09-10T08:42:39.983Z,94.33
2022-09-10T08:45:14.906Z,94.84
2022-09-10T08:47:54.642Z,93.49
2022-09-10T08:50:34.217Z,93.36
2022-09-10T08:53:17.216Z,93.71
2022-09-10T08:55:49.083Z,93.96
2022-09-10T08:58:23.769Z,94.17
2022-09-10T09:00:57.698Z,93.74
2022-09-10T09:03:35.820Z,93.53
2022-09-10T09:06:06.755Z,93.49
2022-09-10T09:08:48.506Z,94.15
2022-09-10T09:11:37.300Z,94.65
2022-09-10T09:14:37.402Z,96.90
2022-09-10T09:17:34.159Z,95.26
2022-09-10T09:20:18.064Z,95.38
2022-09-10T09:22:55.116Z,96.23
2022-09-10T09:25:39.482Z,96.62
2022-09-10T09:28:27.699Z,96.56
2022-09-10T09:30:59.889Z,97.22
2022-09-10T09:33:31.532Z,96.29
2022-09-10T09:36:04.310Z,96.00
2022-09-10T09:38:38.960Z,94.01
2022-09-10T09:41:20.642Z,94.96
2022-09-10T09:43:55.999Z,91.01
2022-09-10T09:46:26.108Z,87.93
2022-09-10T09:49:01.250Z,84.78
2022-09-10T09:51:35.493Z,82.79
2022-09-10T09:54:46.636Z,82.45
2022-09-10T09:57:01.484Z,83.25
2022-09-10T09:59:34.348Z,82.64
2022-09-10T10:02:12.618Z,84.00
2022-09-10T10:04:55.457Z,84.31
2022-09-10T10:07:31.516Z,84.74
2022-09-10T10:10:02.082Z,85.22
2022-09-10T10:12:32.722Z,85.66
2022-09-10T10:15:02.796Z,84.58
2022-09-10T10:17:38.198Z,84.63
2022-09-10T10:20:10.920Z,84.17
2022-09-10T10:22:42.695Z,84.05
2022-09-10T10:25:48.631Z,83.75
2022-09-10T10:28:25.629Z,83.96
2022-09-10T10:30:56.075Z,83.31
2022-09-10T10:33:30.456Z,82.98
2022-09-10T10:36:10.586Z,82.58
2022-09-10T10:38:41.791Z,82.86
2022-09-10T10:41:45.004Z,84.15
2022-09-10T10:44:41.615Z,84.21
2022-09-10T10:47:35.878Z,83.35
2022-09-10T10:50:22.539Z,83.31
2022-09-10T10:53:19.909Z,83.29
2022-09-10T10:55:59.041Z,83.56
2022-09-10T10:58:54.147Z,82.18
2022-09-10T11:01:26.054Z,81.66
2022-09-10T11:04:08.854Z,82.23
2022-09-10T11:06:43.005Z,82.57
2022-09-10T11:09:20.039Z,81.81
2022-09-10T11:11:57.621Z,81.79
2022-09-10T11:14:37.015Z,80.80
2022-09-10T11:17:12.639Z,80.34
2022-09-10T11:19:53.326Z,79.00
2022-09-10T11:22:39.190Z,79.60
2022-09-10T11:25:20.477Z,77.75
2022-09-10T11:27:54.896Z,73.61
2022-09-10T11:30:23.333Z,74.13
2022-09-10T11:33:00.116Z,74.02
2022-09-10T11:35:32.945Z,73.54
2022-09-10T11:38:14.534Z,73.73
2022-09-10T11:40:52.325Z,73.25
2022-09-10T11:43:37.223Z,74.19
2022-09-10T11:46:12.686Z,73.26
2022-09-10T11:48:47.525Z,73.76
2022-09-10T11:51:22.118Z,72.85
2022-09-10T11:53:50.708Z,72.15
2022-09-10T11:56:36.704Z,72.52
2022-09-10T11:59:59.161Z,73.29
2022-09-10T12:03:07.821Z,73.09
2022-09-10T12:05:49.148Z,72.64
2022-09-10T12:08:43.858Z,72.05
2022-09-10T12:11:24.936Z,70.62
2022-09-10T12:13:53.581Z,70.60
2022-09-10T12:16:35.803Z,71.16
2022-09-10T12:19:10.315Z,70.40
2022-09-10T12:21:45.590Z,70.36
2022-09-10T12:24:29.710Z,70.87
2022-09-10T12:27:00.762Z,73.15
2022-09-10T12:29:36.728Z,72.76
2022-09-10T12:32:36.586Z,74.58
2022-09-10T12:35:48.433Z,74.45
2022-09-10T12:38:49.964Z,70.72
2022-09-10T12:41:56.761Z,69.73
2022-09-10T12:44:46.718Z,69.69
2022-09-10T12:47:42.051Z,69.51
2022-09-10T12:50:46.149Z,69.79
2022-09-10T12:53:50.573Z,69.10
2022-09-10T12:57:04.240Z,68.87
2022-09-10T13:00:12.065Z,68.02
2022-09-10T13:02:51.339Z,68.43
2022-09-10T13:05:27.605Z,68.05
2022-09-10T13:08:10.898Z,68.32
2022-09-10T13:10:40.396Z,68.19
2022-09-10T13:13:34.229Z,68.51
2022-09-10T13:16:04.306Z,68.14
2022-09-10T13:18:36.307Z,68.93
2022-09-10T13:21:51.843Z,67.76
2022-09-10T13:24:40.107Z,67.87
2022-09-10T13:27:23.073Z,67.34
2022-09-10T13:29:56.698Z,67.32
2022-09-10T13:32:30.998Z,65.86
2022-09-10T13:35:31.083Z,65.52
2022-09-10T13:38:46.015Z,64.57
2022-09-10T13:41:44.661Z,63.88
2022-09-10T13:44:32.855Z,63.90
2022-09-10T13:47:11.654Z,64.35
2022-09-10T13:49:52.497Z,64.94
2022-09-10T13:52:29.986Z,65.69
2022-09-10T13:54:59.638Z,65.45
2022-09-10T13:57:32.698Z,64.51
2022-09-10T14:00:07.810Z,65.62
2022-09-10T14:02:47.655Z,64.71
2022-09-10T14:05:33.970Z,63.51
2022-09-10T14:08:08.521Z,63.90
2022-09-10T14:10:51.047Z,62.35
2022-09-10T14:13:24.683Z,63.32
2022-09-10T14:15:54.455Z,62.68
2022-09-10T14:18:25.500Z,62.30
2022-09-10T14:20:53.975Z,62.86
2022-09-10T14:23:23.742Z,63.21
2022-09-10T14:26:12.360Z,63.42
2022-09-10T14:29:01.066Z,63.30
2022-09-10T14:31:35.176Z,64.44
2022-09-10T14:34:32.880Z,64.34
2022-09-10T14:37:02.722Z,64.62
2022-09-10T14:39:33.163Z,64.67
2022-09-10T14:42:25.215Z,64.67
2022-09-10T14:44:53.798Z,65.39
2022-09-10T14:47:32.460Z,65.00
2022-09-10T14:50:31.073Z,65.06
2022-09-10T14:53:00.149Z,65.04
2022-09-10T14:55:32.878Z,65.14
2022-09-10T14:58:01.526Z,64.68
2022-09-10T15:00:30.565Z,65.23
2022-09-10T15:02:58.962Z,65.26
2022-09-10T15:05:27.292Z,66.42
2022-09-10T15:07:55.617Z,70.84
2022-09-10T15:10:23.957Z,73.90
2022-09-10T15:12:55.542Z,74.06
2022-09-10T15:15:24.937Z,76.60
2022-09-10T15:17:53.700Z,79.88
2022-09-10T15:20:27.163Z,87.89
2022-09-10T15:22:56.209Z,92.81
2022-09-10T15:25:38.527Z,91.35
2022-09-10T15:28:08.635Z,92.93
2022-09-10T15:30:37.240Z,91.44
2022-09-10T15:33:06.480Z,92.85
2022-09-10T15:35:35.143Z,93.38
2022-09-10T15:38:03.590Z,92.92
2022-09-10T15:40:32.408Z,93.88
2022-09-10T15:43:00.822Z,93.40
2022-09-10T15:45:31.165Z,96.31
2022-09-10T15:47:59.549Z,89.22
2022-09-10T15:50:27.885Z,88.58
2022-09-10T15:52:56.430Z,90.09
2022-09-10T15:55:24.949Z,89.55
2022-09-10T15:57:53.942Z,90.87
2022-09-10T16:00:22.414Z,89.99
2022-09-10T16:02:55.300Z,89.37
2022-09-10T16:05:23.676Z,90.63
2022-09-10T16:07:52.468Z,90.32
2022-09-10T16:10:20.774Z,90.56
2022-09-10T16:12:49.145Z,92.43
2022-09-10T16:15:17.663Z,89.22
2022-09-10T16:17:46.273Z,87.99
2022-09-10T16:20:16.121Z,90.73
2022-09-10T16:22:44.720Z,90.30
2022-09-10T16:25:13.025Z,91.63
2022-09-10T16:27:43.343Z,92.20
2022-09-10T16:30:13.765Z,91.54
2022-09-10T16:32:42.074Z,90.60
2022-09-10T16:35:10.614Z,91.01
2022-09-10T16:37:40.685Z,91.00
2022-09-10T16:40:11.555Z,92.07
2022-09-10T16:42:39.984Z,92.22
2022-09-10T16:45:10.248Z,92.21
2022-09-10T16:47:38.511Z,91.62
2022-09-10T16:50:07.762Z,91.27
2022-09-10T16:52:36.525Z,91.51
2022-09-10T16:55:07.476Z,91.67
2022-09-10T16:57:35.777Z,92.21
2022-09-10T17:00:07.001Z,92.28
2022-09-10T17:02:35.643Z,94.12
2022-09-10T17:05:04.625Z,95.39
2022-09-10T17:07:32.937Z,96.00
2022-09-10T17:10:01.350Z,96.72
2022-09-10T17:12:31.084Z,96.55
2022-09-10T17:14:59.465Z,97.71
2022-09-10T17:17:27.832Z,97.39
2022-09-10T17:19:56.471Z,96.60
2022-09-10T17:22:24.868Z,97.67
2022-09-10T17:24:53.970Z,99.15
2022-09-10T17:27:25.593Z,98.78
2022-09-10T17:29:55.463Z,98.62
2022-09-10T17:32:23.930Z,100.00
2022-09-10T17:34:55.177Z,99.88
2022-09-10T17:37:24.486Z,100.00
2022-09-10T17:39:53.856Z,99.80
2022-09-10T17:42:22.499Z,100.00
2022-09-10T17:44:50.911Z,100.00
2022-09-10T17:47:20.626Z,100.00
2022-09-10T17:49:49.022Z,100.00
2022-09-10T17:52:17.367Z,100.00
2022-09-10T17:54:45.743Z,99.80
2022-09-10T17:57:17.551Z,100.00
2022-09-10T17:59:45.870Z,100.00
2022-09-10T18:02:15.455Z,100.00
2022-09-10T18:04:45.476Z,100.00
2022-09-10T18:07:14.127Z,99.66
2022-09-10T18:09:42.515Z,100.00
2022-09-10T18:12:10.881Z,100.00
2022-09-10T18:14:39.518Z,100.00
2022-09-10T18:17:07.835Z,100.00
2022-09-10T18:19:36.505Z,99.73
2022-09-10T18:22:07.839Z,99.34
2022-09-10T18:24:36.681Z,99.81
2022-09-10T18:27:05.383Z,100.00
2022-09-10T18:29:33.917Z,100.00
2022-09-10T18:32:02.456Z,100.00
2022-09-10T18:34:32.368Z,98.32
2022-09-10T18:37:02.928Z,98.10
2022-09-10T18:39:34.317Z,97.35
2022-09-10T18:42:03.511Z,99.23
2022-09-10T18:44:36.462Z,100.00
2022-09-10T18:47:17.922Z,100.00
2022-09-10T18:49:50.973Z,100.00
2022-09-10T18:52:19.524Z,100.00
2022-09-10T18:54:49.481Z,100.00
2022-09-10T18:57:17.755Z,100.00
2022-09-10T18:59:46.105Z,100.00
